Time;durP1;ratioP1;P1;durP2;ratioP2;P2;SDS_P1;SDS_P2;PMS_P1;PMS_P2;Temp;Humidity;BMP_temperature;BMP_pressure;BME280_temperature;BME280_humidity;BME280_pressure;Samples;Min_cycle;Max_cycle;Signal;HPM_P1;HPM_P2
2021/03/17 00:01:24;;;;;;;4.87;4.47;;;;;;;;;;5033609;28;20210;-80
2021/03/17 00:04:09;;;;;;;5.07;4.67;;;;;;;;;;5033679;28;20685;-80
2021/03/17 00:06:53;;;;;;;4.97;4.57;;;;;;;;;;5032848;28;20218;-80
2021/03/17 00:09:38;;;;;;;5.10;4.60;;;;;;;;;;5033379;28;20202;-80
2021/03/17 00:12:22;;;;;;;5.50;5.10;;;;;;;;;;5033246;28;20262;-80
2021/03/17 00:15:07;;;;;;;5.10;4.70;;;;;;;;;;5033211;28;20244;-79
2021/03/17 00:17:52;;;;;;;5.50;5.10;;;;;;;;;;5032667;28;20720;-80
2021/03/17 00:20:37;;;;;;;5.97;5.37;;;;;;;;;;5033073;28;20220;-79
2021/03/17 00:23:22;;;;;;;5.93;5.43;;;;;;;;;;5033000;28;20680;-80
2021/03/17 00:26:06;;;;;;;5.93;5.33;;;;;;;;;;5032523;28;20313;-79
2021/03/17 00:28:51;;;;;;;6.20;5.53;;;;;;;;;;5032519;28;20240;-80
2021/03/17 00:31:35;;;;;;;6.03;5.53;;;;;;;;;;5032798;28;20226;-80
2021/03/17 00:34:21;;;;;;;6.60;6.03;;;;;;;;;;5032919;28;20257;-80
2021/03/17 00:37:06;;;;;;;7.13;6.43;;;;;;;;;;5032010;28;20342;-80
2021/03/17 00:39:50;;;;;;;8.63;7.83;;;;;;;;;;5032491;28;20202;-80
2021/03/17 00:42:35;;;;;;;8.33;7.53;;;;;;;;;;5032652;28;20607;-80
2021/03/17 00:45:19;;;;;;;8.27;7.47;;;;;;;;;;5032551;28;20237;-80
2021/03/17 00:48:04;;;;;;;8.07;7.37;;;;;;;;;;5032240;28;20257;-80
2021/03/17 00:50:49;;;;;;;9.00;8.10;;;;;;;;;;5032340;28;20202;-80
2021/03/17 00:53:33;;;;;;;8.13;7.30;;;;;;;;;;5032754;28;20691;-80
2021/03/17 00:56:18;;;;;;;9.07;8.23;;;;;;;;;;5032148;28;20248;-80
2021/03/17 00:59:02;;;;;;;7.87;7.17;;;;;;;;;;5032231;28;20225;-80
2021/03/17 01:01:47;;;;;;;7.30;6.67;;;;;;;;;;5032304;28;20202;-80
2021/03/17 01:04:31;;;;;;;6.80;6.30;;;;;;;;;;5032166;28;20245;-80
2021/03/17 01:07:18;;;;;;;7.00;6.40;;;;;;;;;;5032146;28;20218;-78
2021/03/17 01:10:06;;;;;;;7.63;6.93;;;;;;;;;;5032301;28;20578;-80
2021/03/17 01:12:51;;;;;;;7.50;6.83;;;;;;;;;;5031825;28;20229;-80
2021/03/17 01:15:36;;;;;;;6.87;6.30;;;;;;;;;;5031984;28;20230;-80
2021/03/17 01:18:20;;;;;;;6.90;6.30;;;;;;;;;;5031858;28;20714;-80
2021/03/17 01:21:05;;;;;;;6.83;6.33;;;;;;;;;;5031986;28;20565;-80
2021/03/17 01:23:50;;;;;;;6.20;5.70;;;;;;;;;;5031920;28;20689;-81
2021/03/17 01:26:35;;;;;;;6.50;6.00;;;;;;;;;;5031373;28;20668;-80
2021/03/17 01:29:20;;;;;;;6.80;6.30;;;;;;;;;;5031932;28;20205;-80
2021/03/17 01:32:04;;;;;;;6.53;6.03;;;;;;;;;;5031622;28;20600;-80
2021/03/17 01:34:49;;;;;;;7.50;5.93;;;;;;;;;;5031921;28;20202;-80
2021/03/17 01:37:33;;;;;;;6.83;6.20;;;;;;;;;;5030766;28;20713;-81
2021/03/17 01:40:22;;;;;;;7.03;6.43;;;;;;;;;;5031650;28;20237;-80
2021/03/17 01:43:07;;;;;;;6.70;6.10;;;;;;;;;;5031612;28;20249;-80
2021/03/17 01:45:52;;;;;;;7.13;6.47;;;;;;;;;;5031076;28;20497;-80
2021/03/17 01:48:36;;;;;;;6.00;5.60;;;;;;;;;;5031530;28;20221;-80
2021/03/17 01:51:21;;;;;;;6.60;6.10;;;;;;;;;;5031362;28;20202;-80
2021/03/17 01:54:07;;;;;;;6.00;5.60;;;;;;;;;;5031311;28;20207;-80
2021/03/17 01:56:52;;;;;;;6.00;5.60;;;;;;;;;;5030982;28;20206;-80
2021/03/17 01:59:36;;;;;;;6.47;5.93;;;;;;;;;;5031239;28;20211;-80
2021/03/17 02:02:21;;;;;;;6.60;6.10;;;;;;;;;;5031362;28;20669;-80
2021/03/17 02:05:08;;;;;;;6.10;5.60;;;;;;;;;;5031526;28;20276;-80
2021/03/17 02:07:54;;;;;;;5.90;5.50;;;;;;;;;;5030978;28;20307;-80
2021/03/17 02:10:38;;;;;;;6.20;5.63;;;;;;;;;;5031471;28;20221;-80
2021/03/17 02:13:31;;;;;;;5.60;5.20;;;;;;;;;;5030965;28;20590;-80
2021/03/17 02:16:19;;;;;;;6.27;5.67;;;;;;;;;;5030978;28;20205;-80
2021/03/17 02:19:18;;;;;;;6.07;5.67;;;;;;;;;;5030491;28;20229;-81
2021/03/17 02:22:17;;;;;;;5.93;5.43;;;;;;;;;;5030987;28;20202;-80
2021/03/17 02:25:04;;;;;;;6.50;6.00;;;;;;;;;;5031179;28;20690;-80
2021/03/17 02:28:07;;;;;;;6.17;5.57;;;;;;;;;;5030523;28;20268;-80
2021/03/17 02:31:08;;;;;;;6.60;6.10;;;;;;;;;;5030999;28;20205;-80
2021/03/17 02:33:58;;;;;;;6.43;5.93;;;;;;;;;;5030967;28;20253;-80
2021/03/17 02:36:44;;;;;;;6.20;5.80;;;;;;;;;;5030370;28;20678;-80
2021/03/17 02:39:32;;;;;;;8.18;7.63;;;;;;;;;;5029982;28;20821;-81
2021/03/17 02:42:20;;;;;;;6.40;5.90;;;;;;;;;;5031440;28;20215;-80
2021/03/17 02:45:05;;;;;;;6.63;6.13;;;;;;;;;;5031201;28;20205;-80
2021/03/17 02:47:53;;;;;;;6.17;5.73;;;;;;;;;;5030296;28;20221;-81
2021/03/17 02:50:41;;;;;;;6.47;5.97;;;;;;;;;;5030798;28;20606;-80
2021/03/17 02:53:27;;;;;;;6.17;5.67;;;;;;;;;;5030593;28;20709;-80
2021/03/17 02:56:12;;;;;;;5.57;5.10;;;;;;;;;;5030143;28;20210;-80
2021/03/17 02:58:59;;;;;;;5.70;5.30;;;;;;;;;;5030697;28;20222;-79
2021/03/17 03:01:43;;;;;;;5.43;5.00;;;;;;;;;;5030816;28;20206;-80
2021/03/17 03:04:28;;;;;;;4.70;4.40;;;;;;;;;;5030672;28;20258;-76
2021/03/17 03:07:14;;;;;;;5.80;5.30;;;;;;;;;;5034005;28;20213;-75
2021/03/17 03:09:59;;;;;;;5.40;4.90;;;;;;;;;;5034438;28;20705;-77
2021/03/17 03:12:43;;;;;;;5.20;4.80;;;;;;;;;;5034364;28;20277;-76
2021/03/17 03:15:29;;;;;;;5.33;4.93;;;;;;;;;;5034070;28;20206;-75
2021/03/17 03:18:14;;;;;;;5.13;4.77;;;;;;;;;;5033847;28;20712;-76
2021/03/17 03:20:59;;;;;;;4.60;4.30;;;;;;;;;;5034256;28;20198;-76
2021/03/17 03:23:45;;;;;;;5.23;4.73;;;;;;;;;;5034272;28;20242;-76
2021/03/17 03:26:31;;;;;;;6.80;6.40;;;;;;;;;;5032216;28;20806;-76
2021/03/17 03:29:16;;;;;;;5.70;5.30;;;;;;;;;;5034087;28;20207;-76
2021/03/17 03:32:02;;;;;;;4.97;4.67;;;;;;;;;;5034240;28;20230;-76
2021/03/17 03:34:46;;;;;;;5.10;4.80;;;;;;;;;;5034059;28;20256;-76
2021/03/17 03:37:30;;;;;;;5.10;4.60;;;;;;;;;;5033195;28;20555;-77
2021/03/17 03:40:17;;;;;;;5.37;4.97;;;;;;;;;;5033932;28;20198;-77
2021/03/17 03:43:02;;;;;;;5.50;5.07;;;;;;;;;;5033800;28;20295;-77
2021/03/17 03:45:47;;;;;;;5.27;4.77;;;;;;;;;;5033726;28;20205;-76
2021/03/17 03:48:31;;;;;;;5.70;4.93;;;;;;;;;;5033618;28;20296;-75
2021/03/17 03:51:18;;;;;;;4.60;4.30;;;;;;;;;;5033825;28;20206;-76
2021/03/17 03:54:07;;;;;;;5.50;5.00;;;;;;;;;;5033537;28;20245;-76
2021/03/17 03:56:58;;;;;;;5.00;4.60;;;;;;;;;;5032939;28;20222;-75
2021/03/17 03:59:43;;;;;;;5.37;4.97;;;;;;;;;;5033606;28;20218;-76
2021/03/17 04:02:32;;;;;;;5.40;4.97;;;;;;;;;;5033570;28;20234;-75
2021/03/17 04:05:18;;;;;;;4.93;4.50;;;;;;;;;;5033591;28;20198;-76
2021/03/17 04:08:05;;;;;;;5.50;5.00;;;;;;;;;;5032875;28;20226;-77
2021/03/17 04:10:52;;;;;;;5.20;4.80;;;;;;;;;;5033267;28;20288;-76
2021/03/17 04:13:39;;;;;;;4.87;4.47;;;;;;;;;;5032995;28;20234;-76
2021/03/17 04:16:25;;;;;;;5.57;5.17;;;;;;;;;;5032311;28;20559;-77
2021/03/17 04:19:10;;;;;;;6.03;4.90;;;;;;;;;;5033161;28;20245;-76
2021/03/17 04:21:56;;;;;;;5.40;4.97;;;;;;;;;;5033336;28;20592;-75
2021/03/17 04:24:40;;;;;;;5.50;5.00;;;;;;;;;;5033226;28;20336;-76
2021/03/17 04:27:25;;;;;;;4.77;4.40;;;;;;;;;;5032466;28;20233;-76
2021/03/17 04:30:11;;;;;;;5.10;4.60;;;;;;;;;;5033163;28;20198;-77
2021/03/17 04:32:56;;;;;;;5.23;4.83;;;;;;;;;;5032538;28;20238;-76
2021/03/17 04:35:41;;;;;;;5.07;4.67;;;;;;;;;;5032686;28;20260;-75
2021/03/17 04:38:26;;;;;;;5.70;5.10;;;;;;;;;;5032711;28;20229;-76
2021/03/17 04:41:12;;;;;;;5.13;4.77;;;;;;;;;;5032681;28;20693;-76
2021/03/17 04:43:56;;;;;;;5.77;5.33;;;;;;;;;;5032645;28;20229;-75
2021/03/17 04:46:42;;;;;;;5.27;4.83;;;;;;;;;;5032163;28;20241;-76
2021/03/17 04:49:26;;;;;;;5.33;4.83;;;;;;;;;;5032242;28;20249;-75
2021/03/17 04:52:12;;;;;;;5.63;5.23;;;;;;;;;;5032338;28;20349;-76
2021/03/17 04:54:57;;;;;;;4.97;4.60;;;;;;;;;;5032433;28;20206;-75
2021/03/17 04:57:42;;;;;;;4.33;4.03;;;;;;;;;;5031680;28;20214;-76
2021/03/17 05:00:27;;;;;;;5.60;5.20;;;;;;;;;;5032480;28;20206;-76
2021/03/17 05:03:12;;;;;;;5.30;4.90;;;;;;;;;;5032222;28;20620;-77
2021/03/17 05:05:57;;;;;;;4.83;4.43;;;;;;;;;;5031797;28;20206;-76
2021/03/17 05:08:43;;;;;;;3.97;3.70;;;;;;;;;;5032121;28;20696;-76
2021/03/17 05:11:28;;;;;;;4.53;4.23;;;;;;;;;;5031995;28;20680;-76
2021/03/17 05:14:13;;;;;;;4.80;4.50;;;;;;;;;;5032165;28;20310;-76
2021/03/17 05:16:59;;;;;;;7.10;5.00;;;;;;;;;;5031658;28;20218;-76
2021/03/17 05:19:44;;;;;;;5.37;4.60;;;;;;;;;;5032357;28;20729;-76
2021/03/17 05:22:28;;;;;;;5.73;5.23;;;;;;;;;;5032001;28;20249;-77
2021/03/17 05:25:14;;;;;;;8.93;7.27;;;;;;;;;;5031979;28;20716;-76
2021/03/17 05:28:04;;;;;;;5.47;4.63;;;;;;;;;;5030476;28;20222;-75
2021/03/17 05:30:50;;;;;;;4.40;4.00;;;;;;;;;;5031828;28;20729;-77
2021/03/17 05:33:35;;;;;;;4.90;4.50;;;;;;;;;;5031430;28;20293;-75
2021/03/17 05:36:21;;;;;;;5.27;4.77;;;;;;;;;;5030915;28;20252;-76
2021/03/17 05:39:06;;;;;;;15.63;9.80;;;;;;;;;;5031579;28;20700;-75
2021/03/17 05:41:50;;;;;;;4.57;4.20;;;;;;;;;;5031598;28;20677;-76
2021/03/17 05:44:36;;;;;;;4.97;4.57;;;;;;;;;;5031553;28;20317;-76
2021/03/17 05:47:21;;;;;;;4.83;4.53;;;;;;;;;;5031125;28;20226;-76
2021/03/17 05:50:06;;;;;;;4.03;3.77;;;;;;;;;;5031647;28;20197;-77
2021/03/17 05:52:52;;;;;;;3.87;3.53;;;;;;;;;;5031137;28;20221;-76
2021/03/17 05:55:36;;;;;;;4.13;3.93;;;;;;;;;;5031247;28;20252;-75
2021/03/17 05:58:21;;;;;;;3.87;3.57;;;;;;;;;;5031225;28;20260;-76
2021/03/17 06:01:06;;;;;;;4.00;3.70;;;;;;;;;;5030995;28;20202;-76
2021/03/17 06:03:50;;;;;;;4.63;4.30;;;;;;;;;;5031198;28;20197;-76
2021/03/17 06:06:37;;;;;;;4.87;4.57;;;;;;;;;;5030609;28;20229;-76
2021/03/17 06:09:23;;;;;;;4.50;4.20;;;;;;;;;;5031550;28;20716;-74
2021/03/17 06:12:09;;;;;;;4.30;3.90;;;;;;;;;;5027298;28;20584;-75
2021/03/17 06:14:55;;;;;;;4.80;4.40;;;;;;;;;;5011107;28;20227;-76
2021/03/17 06:17:40;;;;;;;4.77;4.43;;;;;;;;;;5026356;28;20225;-76
2021/03/17 06:20:25;;;;;;;4.37;3.97;;;;;;;;;;5016321;28;20207;-77
2021/03/17 06:23:10;;;;;;;4.50;3.90;;;;;;;;;;5018852;28;20202;-77
2021/03/17 06:25:57;;;;;;;3.97;3.70;;;;;;;;;;5018172;28;20269;-75
2021/03/17 06:28:42;;;;;;;5.07;4.60;;;;;;;;;;5010134;28;20432;-76
2021/03/17 06:31:26;;;;;;;5.47;4.43;;;;;;;;;;5021088;28;20685;-79
2021/03/17 06:34:11;;;;;;;4.40;4.10;;;;;;;;;;5030807;28;20234;-80
2021/03/17 06:36:56;;;;;;;4.20;3.90;;;;;;;;;;5030329;28;20213;-80
2021/03/17 06:39:40;;;;;;;3.80;3.50;;;;;;;;;;5033128;28;20221;-79
2021/03/17 06:42:37;;;;;;;3.57;3.30;;;;;;;;;;5034579;28;20245;-79
2021/03/17 06:45:29;;;;;;;3.70;3.40;;;;;;;;;;5014976;28;20246;-81
2021/03/17 06:48:18;;;;;;;4.00;3.60;;;;;;;;;;5014706;28;20246;-81
2021/03/17 06:51:04;;;;;;;4.23;3.60;;;;;;;;;;5015063;28;20272;-80
2021/03/17 06:53:49;;;;;;;4.67;4.20;;;;;;;;;;5014577;28;20282;-81
2021/03/17 06:56:34;;;;;;;4.80;4.30;;;;;;;;;;5014383;28;20615;-79
2021/03/17 06:59:20;;;;;;;4.07;3.80;;;;;;;;;;5015107;28;20238;-80
2021/03/17 07:02:04;;;;;;;4.20;3.90;;;;;;;;;;5015008;28;20211;-80
2021/03/17 07:04:52;;;;;;;4.27;3.87;;;;;;;;;;5014747;28;20267;-80
2021/03/17 07:07:45;;;;;;;4.70;4.13;;;;;;;;;;5017949;28;20202;-80
2021/03/17 07:10:30;;;;;;;2.23;2.10;;;;;;;;;;5018554;28;20259;-81
2021/03/17 07:13:15;;;;;;;3.25;2.97;;;;;;;;;;5013605;28;20447;-81
2021/03/17 07:16:00;;;;;;;2.50;2.30;;;;;;;;;;5014025;28;20284;-71
2021/03/17 07:18:44;;;;;;;2.80;2.60;;;;;;;;;;5014218;28;20582;-72
2021/03/17 07:21:30;;;;;;;3.37;2.60;;;;;;;;;;5017296;28;20266;-71
2021/03/17 07:24:23;;;;;;;2.83;2.53;;;;;;;;;;5026568;28;20361;-72
2021/03/17 07:27:14;;;;;;;3.17;2.90;;;;;;;;;;5033244;28;20226;-72
2021/03/17 07:30:09;;;;;;;3.70;2.63;;;;;;;;;;5033701;28;20576;-72
2021/03/17 07:32:56;;;;;;;2.80;2.60;;;;;;;;;;5033513;28;20772;-72
2021/03/17 07:35:40;;;;;;;3.50;3.20;;;;;;;;;;5033208;28;20414;-74
2021/03/17 07:38:25;;;;;;;2.43;2.23;;;;;;;;;;5033519;28;20234;-75
2021/03/17 07:41:09;;;;;;;2.93;2.63;;;;;;;;;;5033685;28;20203;-76
2021/03/17 07:43:54;;;;;;;2.60;2.40;;;;;;;;;;5018417;28;20315;-74
2021/03/17 07:46:39;;;;;;;3.23;2.30;;;;;;;;;;5019796;28;20579;-75
2021/03/17 07:49:24;;;;;;;2.87;2.50;;;;;;;;;;5013803;28;20207;-75
2021/03/17 07:52:15;;;;;;;2.87;2.17;;;;;;;;;;5013128;28;20226;-78
2021/03/17 07:55:04;;;;;;;1.20;1.17;;;;;;;;;;5015479;28;20269;-78
2021/03/17 07:57:48;;;;;;;1.77;1.27;;;;;;;;;;5033089;28;20194;-77
2021/03/17 08:00:33;;;;;;;1.90;1.40;;;;;;;;;;5026451;28;20203;-78
2021/03/17 08:03:19;;;;;;;2.87;1.53;;;;;;;;;;5021538;28;20298;-77
2021/03/17 08:06:06;;;;;;;3.00;1.60;;;;;;;;;;5024829;28;20257;-78
2021/03/17 08:08:50;;;;;;;4.20;1.50;;;;;;;;;;5017018;28;20223;-74
2021/03/17 08:11:36;;;;;;;2.23;1.50;;;;;;;;;;5033156;28;20208;-78
2021/03/17 08:14:22;;;;;;;2.70;1.67;;;;;;;;;;5032860;28;20294;-76
2021/03/17 08:17:09;;;;;;;2.40;1.90;;;;;;;;;;5032402;28;20276;-77
2021/03/17 08:20:11;;;;;;;2.83;1.73;;;;;;;;;;5032517;28;20277;-78
2021/03/17 08:22:57;;;;;;;3.43;2.03;;;;;;;;;;5032814;28;20298;-80
2021/03/17 08:25:45;;;;;;;2.33;2.07;;;;;;;;;;5032555;28;20206;-79
2021/03/17 08:28:29;;;;;;;3.83;2.10;;;;;;;;;;5032906;28;20269;-81
2021/03/17 08:31:29;;;;;;;2.90;2.00;;;;;;;;;;5032577;28;20253;-76
2021/03/17 08:34:23;;;;;;;2.57;1.60;;;;;;;;;;5014805;28;20345;-77
2021/03/17 08:37:08;;;;;;;2.90;2.30;;;;;;;;;;5012166;28;20230;-81
2021/03/17 08:39:53;;;;;;;2.53;1.87;;;;;;;;;;5017480;28;20207;-79
2021/03/17 08:42:38;;;;;;;2.97;2.20;;;;;;;;;;5013149;28;20204;-79
2021/03/17 08:45:23;;;;;;;3.50;2.00;;;;;;;;;;5027526;28;20247;-73
2021/03/17 08:48:07;;;;;;;3.10;1.87;;;;;;;;;;5023163;28;20257;-72
2021/03/17 08:50:52;;;;;;;3.13;1.57;;;;;;;;;;5031179;28;20202;-72
2021/03/17 08:53:39;;;;;;;4.40;1.60;;;;;;;;;;5016483;28;20253;-72
2021/03/17 08:56:45;;;;;;;3.97;1.90;;;;;;;;;;5031893;28;20793;-72
2021/03/17 08:59:39;;;;;;;2.40;1.90;;;;;;;;;;5032357;28;20689;-75
2021/03/17 09:02:47;;;;;;;2.77;1.70;;;;;;;;;;5012504;28;20254;-75
2021/03/17 09:05:33;;;;;;;4.77;2.27;;;;;;;;;;5012749;28;20563;-77
2021/03/17 09:08:17;;;;;;;3.17;1.83;;;;;;;;;;5017991;28;20210;-76
2021/03/17 09:11:02;;;;;;;3.97;1.80;;;;;;;;;;5013333;28;20211;-75
2021/03/17 09:13:51;;;;;;;4.90;1.80;;;;;;;;;;5011967;28;20307;-74
2021/03/17 09:16:37;;;;;;;4.68;2.40;;;;;;;;;;5010650;28;20820;-76
2021/03/17 09:19:21;;;;;;;4.27;1.70;;;;;;;;;;5015001;28;20314;-75
2021/03/17 09:22:30;;;;;;;3.07;1.87;;;;;;;;;;5032145;28;20203;-73
2021/03/17 09:25:19;;;;;;;2.67;1.67;;;;;;;;;;5020418;28;20603;-73
2021/03/17 09:28:05;;;;;;;4.07;2.20;;;;;;;;;;5011609;28;20292;-74
2021/03/17 09:30:51;;;;;;;2.87;1.80;;;;;;;;;;5022302;28;20249;-73
2021/03/17 09:33:36;;;;;;;3.90;1.90;;;;;;;;;;5013331;28;21536;-77
2021/03/17 09:36:23;;;;;;;5.63;1.53;;;;;;;;;;5029304;28;20622;-75
2021/03/17 09:39:07;;;;;;;6.23;1.63;;;;;;;;;;5016892;28;20203;-73
2021/03/17 09:41:52;;;;;;;5.47;1.90;;;;;;;;;;5026564;28;20282;-75
2021/03/17 09:44:36;;;;;;;3.17;2.10;;;;;;;;;;5025771;28;20308;-76
2021/03/17 09:47:25;;;;;;;3.67;1.83;;;;;;;;;;5026292;28;20206;-77
2021/03/17 09:50:17;;;;;;;2.50;1.27;;;;;;;;;;5021474;28;20219;-76
2021/03/17 09:53:02;;;;;;;3.13;1.80;;;;;;;;;;5025330;28;20681;-76
2021/03/17 09:55:46;;;;;;;3.03;1.73;;;;;;;;;;5015980;28;20203;-76
2021/03/17 09:58:31;;;;;;;5.00;1.90;;;;;;;;;;5025626;28;20204;-70
2021/03/17 10:01:15;;;;;;;3.93;1.50;;;;;;;;;;5017564;28;20238;-78
2021/03/17 10:04:00;;;;;;;4.17;2.00;;;;;;;;;;5011313;28;20227;-75
2021/03/17 10:06:45;;;;;;;4.23;2.00;;;;;;;;;;5010704;28;20576;-75
2021/03/17 10:09:31;;;;;;;3.87;2.00;;;;;;;;;;5017222;28;20257;-76
2021/03/17 10:12:16;;;;;;;4.17;1.97;;;;;;;;;;5027468;28;20257;-75
2021/03/17 10:15:01;;;;;;;3.37;1.83;;;;;;;;;;5011806;28;20308;-73
2021/03/17 10:17:46;;;;;;;1.93;1.53;;;;;;;;;;5010298;28;20213;-75
2021/03/17 10:20:31;;;;;;;4.63;1.50;;;;;;;;;;5022409;28;20208;-75
2021/03/17 10:23:16;;;;;;;3.80;1.80;;;;;;;;;;5015710;28;20224;-75
2021/03/17 10:26:00;;;;;;;4.77;1.60;;;;;;;;;;5012278;28;20225;-74
2021/03/17 10:28:45;;;;;;;4.30;1.80;;;;;;;;;;5023937;28;20203;-76
2021/03/17 10:31:30;;;;;;;4.72;2.00;;;;;;;;;;5010317;28;20447;-76
2021/03/17 10:34:15;;;;;;;2.13;1.27;;;;;;;;;;5010533;28;20342;-75
2021/03/17 10:37:00;;;;;;;5.77;2.27;;;;;;;;;;5010557;28;20260;-76
2021/03/17 10:39:48;;;;;;;4.30;1.70;;;;;;;;;;5018036;28;20224;-72
2021/03/17 10:42:33;;;;;;;5.40;1.70;;;;;;;;;;5027108;28;20208;-72
2021/03/17 10:45:18;;;;;;;4.00;1.87;;;;;;;;;;5010899;28;20238;-72
2021/03/17 10:48:10;;;;;;;5.07;1.73;;;;;;;;;;5010977;28;20205;-73
2021/03/17 10:50:54;;;;;;;5.20;1.80;;;;;;;;;;5010811;28;20233;-73
2021/03/17 10:53:44;;;;;;;4.60;2.17;;;;;;;;;;5029708;28;20649;-72
2021/03/17 10:56:29;;;;;;;4.67;1.90;;;;;;;;;;5029671;28;20559;-72
2021/03/17 10:59:22;;;;;;;3.20;1.83;;;;;;;;;;5030613;28;20204;-72
2021/03/17 11:02:18;;;;;;;5.90;1.80;;;;;;;;;;5029536;28;20200;-73
2021/03/17 11:05:07;;;;;;;5.13;2.27;;;;;;;;;;5014171;28;20307;-73
2021/03/17 11:07:53;;;;;;;4.20;1.77;;;;;;;;;;5009883;28;20668;-73
2021/03/17 11:10:47;;;;;;;4.43;1.70;;;;;;;;;;5010640;28;20695;-73
2021/03/17 11:13:40;;;;;;;2.70;1.70;;;;;;;;;;5010344;28;20241;-73
2021/03/17 11:16:29;;;;;;;3.47;1.50;;;;;;;;;;5029760;28;21117;-73
2021/03/17 11:19:14;;;;;;;5.27;2.20;;;;;;;;;;5030391;28;20205;-73
2021/03/17 11:21:58;;;;;;;5.23;2.07;;;;;;;;;;5030111;28;20248;-76
2021/03/17 11:24:43;;;;;;;4.33;2.20;;;;;;;;;;5030043;28;20226;-75
2021/03/17 11:27:27;;;;;;;5.27;2.40;;;;;;;;;;5018759;28;20536;-75
2021/03/17 11:30:13;;;;;;;5.33;2.40;;;;;;;;;;5025232;28;20279;-76
2021/03/17 11:32:57;;;;;;;7.03;2.67;;;;;;;;;;5020885;28;20255;-74
2021/03/17 11:35:43;;;;;;;5.27;2.33;;;;;;;;;;5019194;28;20216;-73
2021/03/17 11:38:28;;;;;;;8.93;2.73;;;;;;;;;;5024842;28;20217;-73
2021/03/17 11:41:12;;;;;;;8.67;2.60;;;;;;;;;;5013946;28;20202;-72
2021/03/17 11:43:57;;;;;;;5.77;2.40;;;;;;;;;;5030574;28;20248;-73
2021/03/17 11:46:42;;;;;;;7.70;2.30;;;;;;;;;;5033271;28;20210;-73
2021/03/17 11:49:27;;;;;;;5.53;2.40;;;;;;;;;;5033170;28;20208;-73
2021/03/17 11:52:11;;;;;;;8.77;2.80;;;;;;;;;;5029820;28;20208;-73
2021/03/17 11:54:56;;;;;;;6.60;2.77;;;;;;;;;;5033244;28;20253;-71
2021/03/17 11:57:40;;;;;;;5.50;2.03;;;;;;;;;;5020246;28;20260;-74
2021/03/17 12:00:25;;;;;;;5.53;2.53;;;;;;;;;;5028553;28;20206;-72
2021/03/17 12:03:11;;;;;;;5.67;2.27;;;;;;;;;;5028612;28;20296;-72
2021/03/17 12:05:55;;;;;;;4.60;2.00;;;;;;;;;;5012879;28;20205;-73
2021/03/17 12:08:40;;;;;;;4.70;2.17;;;;;;;;;;5013579;28;20252;-73
2021/03/17 12:11:25;;;;;;;5.45;2.53;;;;;;;;;;5012326;28;20416;-73
2021/03/17 12:14:09;;;;;;;4.63;1.93;;;;;;;;;;5012940;28;20745;-73
2021/03/17 12:16:54;;;;;;;6.20;2.27;;;;;;;;;;5029692;28;20212;-73
2021/03/17 12:19:39;;;;;;;4.43;2.10;;;;;;;;;;5032761;28;20199;-73
2021/03/17 12:22:24;;;;;;;5.00;2.30;;;;;;;;;;5032761;28;20199;-72
2021/03/17 12:25:09;;;;;;;4.10;1.83;;;;;;;;;;5033120;28;20279;-73
2021/03/17 12:27:54;;;;;;;4.20;1.83;;;;;;;;;;5032778;28;20209;-73
2021/03/17 12:30:38;;;;;;;3.43;1.90;;;;;;;;;;5018422;28;20251;-72
2021/03/17 12:33:23;;;;;;;3.33;1.93;;;;;;;;;;5012923;28;20616;-73
2021/03/17 12:36:08;;;;;;;5.43;1.90;;;;;;;;;;5012292;28;20627;-73
2021/03/17 12:38:53;;;;;;;2.63;1.80;;;;;;;;;;5012657;28;20205;-74
2021/03/17 12:41:37;;;;;;;3.00;1.60;;;;;;;;;;5012568;28;20756;-73
2021/03/17 12:44:22;;;;;;;2.63;1.73;;;;;;;;;;5012812;28;20763;-74
2021/03/17 12:47:08;;;;;;;3.60;1.53;;;;;;;;;;5012172;28;20224;-75
2021/03/17 12:49:52;;;;;;;2.70;1.50;;;;;;;;;;5012527;28;20197;-73
2021/03/17 12:52:37;;;;;;;3.67;2.42;;;;;;;;;;5016671;28;21001;-72
2021/03/17 12:55:22;;;;;;;1.97;1.13;;;;;;;;;;5023539;28;20202;-72
2021/03/17 12:58:06;;;;;;;2.07;1.10;;;;;;;;;;5011858;28;20206;-72
2021/03/17 13:00:51;;;;;;;3.23;1.60;;;;;;;;;;5031648;28;20237;-72
2021/03/17 13:03:35;;;;;;;2.10;1.43;;;;;;;;;;5031894;28;20232;-72
2021/03/17 13:06:20;;;;;;;2.07;1.47;;;;;;;;;;5031638;28;20280;-72
2021/03/17 13:09:06;;;;;;;1.60;1.17;;;;;;;;;;5031625;28;20264;-70
2021/03/17 13:11:50;;;;;;;3.43;1.50;;;;;;;;;;5031363;28;20245;-73
2021/03/17 13:14:35;;;;;;;3.10;1.37;;;;;;;;;;5015132;28;20654;-73
2021/03/17 13:17:21;;;;;;;2.78;1.92;;;;;;;;;;5010629;28;20404;-72
2021/03/17 13:20:07;;;;;;;1.80;1.67;;;;;;;;;;5012282;28;20293;-72
2021/03/17 13:22:51;;;;;;;3.17;1.83;;;;;;;;;;5011942;28;20223;-73
2021/03/17 13:25:37;;;;;;;1.80;1.70;;;;;;;;;;5019275;28;20200;-69
2021/03/17 13:28:21;;;;;;;2.07;1.60;;;;;;;;;;5020377;28;20208;-71
2021/03/17 13:31:06;;;;;;;3.45;2.00;;;;;;;;;;5030214;28;20414;-69
2021/03/17 13:33:50;;;;;;;1.90;1.60;;;;;;;;;;5029508;28;20330;-71
2021/03/17 13:36:35;;;;;;;3.07;1.97;;;;;;;;;;5011771;28;20305;-72
2021/03/17 13:39:19;;;;;;;1.33;1.23;;;;;;;;;;5011745;28;20224;-71
2021/03/17 13:42:05;;;;;;;4.03;1.70;;;;;;;;;;5011925;28;20262;-71
2021/03/17 13:44:51;;;;;;;1.10;1.00;;;;;;;;;;5026010;28;20312;-71
2021/03/17 13:47:36;;;;;;;1.97;1.20;;;;;;;;;;5031122;28;20208;-71
2021/03/17 13:50:20;;;;;;;1.33;1.10;;;;;;;;;;5022828;28;20204;-72
2021/03/17 13:53:05;;;;;;;3.40;1.53;;;;;;;;;;5017413;28;20718;-71
2021/03/17 13:55:49;;;;;;;3.30;1.30;;;;;;;;;;5022762;28;20205;-71
2021/03/17 13:58:35;;;;;;;4.13;1.37;;;;;;;;;;5011735;28;20609;-71
2021/03/17 14:01:19;;;;;;;5.57;1.60;;;;;;;;;;5011576;28;20209;-72
2021/03/17 14:04:04;;;;;;;3.30;1.50;;;;;;;;;;5030232;28;20264;-73
2021/03/17 14:06:48;;;;;;;2.50;1.30;;;;;;;;;;5030317;28;20289;-70
2021/03/17 14:09:32;;;;;;;1.13;1.03;;;;;;;;;;5031139;28;20204;-71
2021/03/17 14:12:17;;;;;;;3.10;1.30;;;;;;;;;;5031345;28;20243;-71
2021/03/17 14:15:02;;;;;;;1.92;1.33;;;;;;;;;;5030106;28;20714;-70
2021/03/17 14:17:47;;;;;;;1.27;1.10;;;;;;;;;;5031003;28;20599;-70
2021/03/17 14:20:32;;;;;;;2.93;1.17;;;;;;;;;;5031301;28;20198;-70
2021/03/17 14:23:16;;;;;;;1.07;0.97;;;;;;;;;;5031006;28;20305;-70
2021/03/17 14:26:00;;;;;;;0.80;0.70;;;;;;;;;;5030754;28;20725;-70
2021/03/17 14:28:45;;;;;;;1.33;1.00;;;;;;;;;;5030993;28;20753;-71
2021/03/17 14:31:30;;;;;;;1.80;1.10;;;;;;;;;;5030848;28;20245;-70
2021/03/17 14:34:15;;;;;;;2.13;1.47;;;;;;;;;;5030634;28;20674;-71
2021/03/17 14:36:59;;;;;;;1.40;1.17;;;;;;;;;;5030078;28;20292;-71
2021/03/17 14:39:44;;;;;;;1.40;1.30;;;;;;;;;;5030592;28;20590;-71
2021/03/17 14:42:28;;;;;;;1.97;1.47;;;;;;;;;;5030799;28;20239;-71
2021/03/17 14:45:13;;;;;;;0.87;0.87;;;;;;;;;;5030650;28;20267;-71
2021/03/17 14:47:59;;;;;;;1.23;1.03;;;;;;;;;;5030386;28;20202;-71
2021/03/17 14:50:43;;;;;;;2.90;1.60;;;;;;;;;;5030920;28;20622;-70
2021/03/17 14:53:28;;;;;;;1.73;1.17;;;;;;;;;;5030371;28;20581;-71
2021/03/17 14:56:12;;;;;;;2.13;1.10;;;;;;;;;;5030097;28;20534;-70
2021/03/17 14:58:57;;;;;;;2.83;1.40;;;;;;;;;;5030726;28;20258;-70
2021/03/17 15:01:41;;;;;;;3.60;1.67;;;;;;;;;;5034471;28;20243;-71
2021/03/17 15:04:27;;;;;;;1.87;1.30;;;;;;;;;;5034346;28;20586;-71
2021/03/17 15:07:11;;;;;;;2.33;1.40;;;;;;;;;;5034240;28;20204;-70
2021/03/17 15:09:57;;;;;;;2.73;1.40;;;;;;;;;;5034739;28;20562;-71
2021/03/17 15:12:41;;;;;;;1.63;1.20;;;;;;;;;;5034825;28;20295;-71
2021/03/17 15:15:26;;;;;;;4.20;1.80;;;;;;;;;;5034554;28;20285;-71
2021/03/17 15:18:10;;;;;;;1.93;1.67;;;;;;;;;;5034027;28;20200;-71
2021/03/17 15:20:56;;;;;;;3.27;1.60;;;;;;;;;;5034491;28;20207;-71
2021/03/17 15:23:40;;;;;;;2.93;1.40;;;;;;;;;;5034232;28;20229;-71
2021/03/17 15:26:25;;;;;;;2.07;1.27;;;;;;;;;;5033807;28;20224;-71
2021/03/17 15:29:12;;;;;;;2.47;1.50;;;;;;;;;;5034221;28;20288;-71
2021/03/17 15:31:56;;;;;;;3.43;2.07;;;;;;;;;;5032567;28;20223;-70
2021/03/17 15:34:41;;;;;;;2.33;1.50;;;;;;;;;;5019369;28;20227;-72
2021/03/17 15:37:26;;;;;;;2.63;1.10;;;;;;;;;;5029096;28;20199;-71
2021/03/17 15:40:11;;;;;;;1.35;1.10;;;;;;;;;;5021384;28;20429;-72
2021/03/17 15:42:56;;;;;;;2.53;1.20;;;;;;;;;;5014049;28;20368;-76
2021/03/17 15:45:40;;;;;;;2.07;1.60;;;;;;;;;;5014697;28;20255;-73
2021/03/17 15:48:25;;;;;;;2.27;1.90;;;;;;;;;;5013697;28;20238;-74
2021/03/17 15:51:09;;;;;;;1.63;1.47;;;;;;;;;;5014493;28;20252;-70
2021/03/17 15:53:55;;;;;;;1.50;1.40;;;;;;;;;;5031602;28;20364;-72
2021/03/17 15:56:39;;;;;;;1.10;1.00;;;;;;;;;;5014414;28;20265;-73
2021/03/17 15:59:23;;;;;;;1.77;1.67;;;;;;;;;;5024388;28;20224;-71
2021/03/17 16:02:08;;;;;;;1.57;1.47;;;;;;;;;;5033614;28;20200;-72
2021/03/17 16:04:53;;;;;;;1.63;1.20;;;;;;;;;;5021679;28;20211;-73
2021/03/17 16:07:37;;;;;;;1.47;1.30;;;;;;;;;;5017729;28;20214;-71
2021/03/17 16:10:23;;;;;;;1.20;1.07;;;;;;;;;;5032843;28;20259;-71
2021/03/17 16:13:07;;;;;;;2.53;1.20;;;;;;;;;;5020801;28;20465;-71
2021/03/17 16:15:52;;;;;;;1.30;1.20;;;;;;;;;;5019181;28;20202;-70
2021/03/17 16:18:37;;;;;;;1.17;1.00;;;;;;;;;;5032453;28;20207;-69
2021/03/17 16:21:21;;;;;;;3.53;1.63;;;;;;;;;;5018507;28;20226;-72
2021/03/17 16:24:06;;;;;;;1.43;1.30;;;;;;;;;;5024270;28;20597;-71
2021/03/17 16:26:52;;;;;;;2.65;2.08;;;;;;;;;;5019336;28;20932;-72
2021/03/17 16:29:36;;;;;;;2.03;1.30;;;;;;;;;;5013091;28;20699;-73
2021/03/17 16:32:21;;;;;;;2.10;1.30;;;;;;;;;;5018712;28;20231;-71
2021/03/17 16:35:06;;;;;;;1.73;1.50;;;;;;;;;;5012290;28;20218;-72